AirNav   TITAN Aviation Fuels
 
 1398 users online  

IS55 Morton Airport
La Harpe, Illinois, USA

GOING TO LA HARPE?


FAA INFORMATION EFFECTIVE 01 DECEMBER 2022

Location

FAA Identifier: IS55
Lat/Long: 40-35-27.1480N 090-56-32.4970W
40-35.452467N 090-56.541617W
40.5908744,-90.9423603
(estimated)
Elevation: 705 ft. / 215 m (estimated)
Variation: 02E (1985)
From city: 1 mile E of LA HARPE, IL
Time zone: UTC -6 (UTC -5 during Daylight Saving Time)
Zip code: 61450

Airport Operations

Airport use: Private use. Permission required prior to landing
Activation date: 10/1980
Control tower: no
ARTCC: CHICAGO CENTER
FSS: SAINT LOUIS FLIGHT SERVICE STATION
Attendance: UNATNDD
Wind indicator: yes
Segmented circle: no

Airport Communications

WX AWOS-3 at MQB (14 nm E): 119.025 (309-837-4022)
WX ASOS at BRL (14 nm NW): 118.025 (319-752-6246)
WX AWOS-3 at FSW (18 nm W): 120.925 (319-372-5147)

Nearby radio navigation aids

VOR radial/distance  VOR name  Freq  Var
BRLr180/8.0BURLINGTON VOR/DME111.4005E

 
NDB name  Hdg/Dist  Freq  Var  ID
BURNS114/9.139001EBR -... .-.
MACOMB283/17.925101EJZY .--- --.. -.--
KEOKUK069/23.636602EEOK . --- -.-

Airport Services

Runway Information

Runway 18/36

Dimensions: 2525 x 100 ft. / 770 x 30 m
Surface: turf
RUNWAY 18  RUNWAY 36
Traffic pattern: leftleft
Obstructions: noneroad, 75 ft. from runway

Airport Ownership and Management from official FAA records

Ownership: Privately-owned
Owner: DENNIS D. MORTON
2904 E. COUNTY RD, BOX 252, BOX 281
LAHARPE, IL 61450
Phone (217) 659-7840
Manager: DENNIS D. MORTON
2904 E. COUNTY RD, BOX 252, BOX 281
LAHARPE, IL 61450
Phone (217) 659-7840

Airport Operational Statistics

Aircraft based on the field: 4
Single engine airplanes: 4
    

Additional Remarks

FOR CD CTC CHICAGO ARTCC AT 630-906-8921.
300 FT LIGHTED TOWER 1/2 MILE SW OF RWY.

Instrument Procedures

There are no published instrument procedures at IS55.

Some nearby airports with instrument procedures:

KMQB - Macomb Municipal Airport (14 nm E)
KBRL - Southeast Iowa Regional Airport (14 nm NW)
KFSW - Fort Madison Municipal Airport (18 nm W)
KEOK - Keokuk Municipal Airport (24 nm W)
C66 - Monmouth Municipal Airport (25 nm NE)
 
Loc | Ops | Rwys | IFR | FBO | Links
Com | Nav | Svcs | Stats | Notes
Area around IS55 (Morton Airport)
 
Road maps at: MapQuest Bing Google
 
Aerial photo
No photo
 
Sectional chart

 
Airport distance calculator
Flying to Morton Airport? Find the distance to fly.

From to IS55

Sunrise and sunset
Times for 07-Dec-2022
 Local
(UTC-6)
 Zulu
(UTC)
Morning civil twilight06:4412:44
Sunrise07:1513:15
Sunset16:3622:36
Evening civil twilight17:0623:06

Current date and time
Zulu (UTC)  07-Dec-2022 14:26:34
Local (UTC-6)  07-Dec-2022 08:26:34
 
METAR
KBRL 
14nm NW 
071353Z AUTO 15005KT M1/4SM -SN FZFG VV001 M02/M03 A3021 RMK AO2 SNB46 SLP236 P0000 I1001 T10221028
KMQB 
14nm E 
071415Z AUTO 08003KT M1/4SM FG OVC002 00/00 A3025 RMK AO2 T00010001
KFSW 
18nm W 
071415Z AUTO 00000KT M1/4SM FZFG M02/M02 A3022 RMK AO2
KEOK 
23nm W 
071415Z AUTO 00000KT 1 1/4SM BR CLR M02/M02 A3022 RMK A01
TAF
KBRL 
14nm NW 
071134Z 0712/0812 VRB03KT 1/4SM FG VV001 TEMPO 0714/0716 1SM BR OVC003 FM071600 VRB04KT P6SM SCT040 FM080000 02005KT P6SM SCT250
NOTAMs
Click for the latest NOTAMs
NOTAMs are issued by the DoD/FAA and will open in a separate window not controlled by AirNav.

 

 
 

Would you like to see your business listed on this page?

 If your business provides an interesting product or service to pilots, flight crews, aircraft, or users of the Morton Airport, you should consider listing it here.  To start the listing process, click on the button below
 
Add a business
 

Other Pages about Morton Airport

Update a link
 
Copyright © AirNav, LLC. All rights reserved. Privacy Policy  Contact